Time;durP1;ratioP1;P1;durP2;ratioP2;P2;SDS_P1;SDS_P2;PMS_P1;PMS_P2;Temp;Humidity;BMP_temperature;BMP_pressure;BME280_temperature;BME280_humidity;BME280_pressure;Samples;Min_cycle;Max_cycle;Signal;HPM_P1;HPM_P2
2022/04/04 00:01:12;;;;;;;5.38;4.97;;;;;;;;;;5076937;28;20220;-64
2022/04/04 00:03:38;;;;;;;5.20;4.80;;;;;;;;;;5076866;28;20244;-64
2022/04/04 00:06:05;;;;;;;5.05;4.72;;;;;;;;;;5075883;28;20204;-64
2022/04/04 00:08:33;;;;;;;4.78;4.38;;;;;;;;;;5076941;28;20229;-64
2022/04/04 00:11:00;;;;;;;4.90;4.50;;;;;;;;;;5076051;28;20553;-64
2022/04/04 00:13:27;;;;;;;4.82;4.53;;;;;;;;;;5075447;28;20235;-64
2022/04/04 00:15:53;;;;;;;4.72;4.43;;;;;;;;;;5075701;28;20625;-64
2022/04/04 00:18:20;;;;;;;5.43;5.03;;;;;;;;;;5075766;28;20232;-64
2022/04/04 00:20:46;;;;;;;4.72;4.43;;;;;;;;;;5075300;28;20199;-64
2022/04/04 00:23:13;;;;;;;4.68;4.38;;;;;;;;;;5075744;28;20280;-64
2022/04/04 00:25:41;;;;;;;4.90;4.60;;;;;;;;;;5076367;28;20220;-64
2022/04/04 00:28:09;;;;;;;5.18;4.78;;;;;;;;;;5075327;28;20251;-64
2022/04/04 00:30:36;;;;;;;5.28;4.85;;;;;;;;;;5076626;28;20226;-64
2022/04/04 00:33:03;;;;;;;5.00;4.60;;;;;;;;;;5076348;28;20495;-64
2022/04/04 00:35:31;;;;;;;4.85;4.55;;;;;;;;;;5076142;28;20248;-64
2022/04/04 00:37:58;;;;;;;5.00;4.60;;;;;;;;;;5074815;28;20195;-64
2022/04/04 00:40:25;;;;;;;4.82;4.53;;;;;;;;;;5075387;28;20231;-64
2022/04/04 00:42:54;;;;;;;4.82;4.53;;;;;;;;;;5075547;28;20201;-64
2022/04/04 00:45:20;;;;;;;5.20;4.90;;;;;;;;;;5074742;28;20209;-64
2022/04/04 00:47:47;;;;;;;5.25;4.85;;;;;;;;;;5075494;28;20236;-64
2022/04/04 00:50:14;;;;;;;5.20;4.90;;;;;;;;;;5075645;28;20287;-64
2022/04/04 00:52:41;;;;;;;5.55;5.15;;;;;;;;;;5075896;28;20199;-64
2022/04/04 00:55:08;;;;;;;4.93;4.63;;;;;;;;;;5075729;28;20229;-64
2022/04/04 00:57:35;;;;;;;5.10;4.70;;;;;;;;;;5075111;28;20173;-64
2022/04/04 01:00:04;;;;;;;4.70;4.43;;;;;;;;;;5075377;28;20216;-64
2022/04/04 01:02:30;;;;;;;4.80;4.45;;;;;;;;;;5075835;28;20193;-64
2022/04/04 01:04:57;;;;;;;4.50;4.20;;;;;;;;;;5075807;28;20209;-64
2022/04/04 01:07:23;;;;;;;4.72;4.43;;;;;;;;;;5074714;28;20205;-64
2022/04/04 01:09:51;;;;;;;4.38;4.07;;;;;;;;;;5075488;28;20221;-64
2022/04/04 01:12:19;;;;;;;4.85;4.55;;;;;;;;;;5075329;28;20295;-64
2022/04/04 01:14:47;;;;;;;4.38;4.15;;;;;;;;;;5074305;28;20204;-64
2022/04/04 01:17:16;;;;;;;4.25;3.95;;;;;;;;;;5074691;28;20197;-64
2022/04/04 01:19:42;;;;;;;4.43;4.03;;;;;;;;;;5074443;28;20597;-64
2022/04/04 01:22:10;;;;;;;4.57;4.28;;;;;;;;;;5074473;28;20239;-64
2022/04/04 01:24:38;;;;;;;4.65;4.35;;;;;;;;;;5075396;28;20217;-64
2022/04/04 01:27:05;;;;;;;4.68;4.38;;;;;;;;;;5075000;28;20577;-64
2022/04/04 01:29:32;;;;;;;5.03;4.63;;;;;;;;;;5074088;28;20205;-64
2022/04/04 01:31:59;;;;;;;4.78;4.47;;;;;;;;;;5075246;28;20272;-64
2022/04/04 01:34:26;;;;;;;4.78;4.38;;;;;;;;;;5075519;28;20200;-64
2022/04/04 01:36:52;;;;;;;4.50;4.20;;;;;;;;;;5074856;28;20331;-64
2022/04/04 01:39:19;;;;;;;4.63;4.32;;;;;;;;;;5074504;28;20204;-64
2022/04/04 01:41:47;;;;;;;4.65;4.25;;;;;;;;;;5074886;28;20193;-64
2022/04/04 01:44:14;;;;;;;4.53;4.22;;;;;;;;;;5073989;28;20235;-64
2022/04/04 01:46:40;;;;;;;4.43;4.13;;;;;;;;;;5074578;28;20224;-64
2022/04/04 01:49:07;;;;;;;4.40;4.10;;;;;;;;;;5075073;28;20244;-64
2022/04/04 01:51:34;;;;;;;4.80;4.50;;;;;;;;;;5074814;28;20221;-64
2022/04/04 01:54:01;;;;;;;4.40;4.10;;;;;;;;;;5073813;28;20193;-64
2022/04/04 01:56:28;;;;;;;4.60;4.25;;;;;;;;;;5074774;28;20191;-64
2022/04/04 01:58:56;;;;;;;4.82;4.43;;;;;;;;;;5075042;28;20203;-64
2022/04/04 02:01:23;;;;;;;4.90;4.60;;;;;;;;;;5074099;28;20250;-64
2022/04/04 02:03:51;;;;;;;5.63;5.13;;;;;;;;;;5074041;28;20201;-64
2022/04/04 02:06:18;;;;;;;4.50;4.20;;;;;;;;;;5074553;28;20509;-64
2022/04/04 02:08:45;;;;;;;4.80;4.40;;;;;;;;;;5074651;28;20522;-64
2022/04/04 02:11:12;;;;;;;4.95;4.55;;;;;;;;;;5078984;28;20207;-64
2022/04/04 02:13:39;;;;;;;4.22;3.97;;;;;;;;;;5077762;28;20207;-64
2022/04/04 02:16:08;;;;;;;4.57;4.28;;;;;;;;;;5078824;28;20196;-64
2022/04/04 02:18:35;;;;;;;3.95;3.75;;;;;;;;;;5077956;28;20197;-65
2022/04/04 02:21:02;;;;;;;4.30;4.00;;;;;;;;;;5077794;28;20242;-65
2022/04/04 02:23:29;;;;;;;4.10;3.80;;;;;;;;;;5078551;28;20217;-65
2022/04/04 02:25:56;;;;;;;4.50;4.10;;;;;;;;;;5078353;28;20185;-65
2022/04/04 02:28:23;;;;;;;4.60;4.30;;;;;;;;;;5077373;28;20217;-65
2022/04/04 02:30:50;;;;;;;4.65;4.35;;;;;;;;;;5078621;28;20200;-65
2022/04/04 02:33:19;;;;;;;4.97;4.68;;;;;;;;;;5078413;28;20205;-65
2022/04/04 02:35:46;;;;;;;4.95;4.55;;;;;;;;;;5077904;28;20335;-65
2022/04/04 02:38:13;;;;;;;4.95;4.55;;;;;;;;;;5077545;28;20189;-65
2022/04/04 02:40:40;;;;;;;4.85;4.55;;;;;;;;;;5078759;28;20205;-65
2022/04/04 02:43:07;;;;;;;4.97;4.57;;;;;;;;;;5078008;28;20193;-65
2022/04/04 02:45:33;;;;;;;5.07;4.68;;;;;;;;;;5078317;28;20268;-65
2022/04/04 02:48:00;;;;;;;5.55;5.10;;;;;;;;;;5077859;28;20217;-65
2022/04/04 02:50:29;;;;;;;5.63;5.22;;;;;;;;;;5077947;28;20185;-65
2022/04/04 02:52:56;;;;;;;5.10;4.80;;;;;;;;;;5077874;28;20181;-65
2022/04/04 02:58:07;;;;;;;5.38;4.97;;;;;;;;;;5076816;28;20205;-65
2022/04/04 03:00:33;;;;;;;6.10;5.70;;;;;;;;;;5077280;28;20201;-65
2022/04/04 03:03:00;;;;;;;6.95;6.45;;;;;;;;;;5077121;28;20635;-64
2022/04/04 03:05:29;;;;;;;5.57;5.18;;;;;;;;;;5078031;28;20193;-64
2022/04/04 03:07:55;;;;;;;5.20;4.88;;;;;;;;;;5077772;28;20209;-64
2022/04/04 03:10:22;;;;;;;6.07;5.68;;;;;;;;;;5077578;28;20552;-64
2022/04/04 03:12:50;;;;;;;6.32;5.93;;;;;;;;;;5077812;28;20182;-64
2022/04/04 03:15:19;;;;;;;6.63;6.13;;;;;;;;;;5076531;28;20231;-64
2022/04/04 03:17:47;;;;;;;6.07;5.65;;;;;;;;;;5077355;28;20262;-64
2022/04/04 03:20:15;;;;;;;6.00;5.60;;;;;;;;;;5076551;28;20210;-64
2022/04/04 03:22:44;;;;;;;6.28;5.88;;;;;;;;;;5076973;28;20196;-64
2022/04/04 03:25:12;;;;;;;6.03;5.63;;;;;;;;;;5076869;28;20547;-64
2022/04/04 03:27:39;;;;;;;6.93;6.43;;;;;;;;;;5077452;28;20186;-64
2022/04/04 03:30:07;;;;;;;6.53;6.03;;;;;;;;;;5077431;28;20216;-64
2022/04/04 03:32:33;;;;;;;6.57;6.18;;;;;;;;;;5077389;28;20255;-64
2022/04/04 03:35:00;;;;;;;6.88;6.38;;;;;;;;;;5076649;28;20248;-64
2022/04/04 03:37:27;;;;;;;7.10;6.60;;;;;;;;;;5077320;28;20199;-64
2022/04/04 03:39:55;;;;;;;7.75;7.20;;;;;;;;;;5075954;28;20632;-64
2022/04/04 03:42:22;;;;;;;6.35;5.85;;;;;;;;;;5077649;28;20235;-64
2022/04/04 03:44:48;;;;;;;6.28;5.78;;;;;;;;;;5075903;28;20605;-64
2022/04/04 03:47:15;;;;;;;6.90;6.35;;;;;;;;;;5077036;28;20216;-64
2022/04/04 03:49:42;;;;;;;6.75;6.25;;;;;;;;;;5076363;28;20244;-64
2022/04/04 03:52:09;;;;;;;6.65;6.15;;;;;;;;;;5076168;28;20602;-64
2022/04/04 03:54:36;;;;;;;6.97;6.47;;;;;;;;;;5076825;28;20204;-64
2022/04/04 03:57:04;;;;;;;7.22;6.63;;;;;;;;;;5076367;28;20189;-64
2022/04/04 03:59:31;;;;;;;7.68;7.13;;;;;;;;;;5076602;28;20578;-64
2022/04/04 04:01:58;;;;;;;6.80;6.30;;;;;;;;;;5076054;28;20208;-64
2022/04/04 04:04:24;;;;;;;7.10;6.50;;;;;;;;;;5076963;28;20264;-64
2022/04/04 04:06:52;;;;;;;7.97;7.43;;;;;;;;;;5076023;28;20205;-64
2022/04/04 04:09:19;;;;;;;6.80;6.20;;;;;;;;;;5076704;28;20576;-64
2022/04/04 04:11:46;;;;;;;6.60;6.10;;;;;;;;;;5075818;28;20200;-66
2022/04/04 04:14:14;;;;;;;6.28;5.65;;;;;;;;;;5075957;28;20519;-66
2022/04/04 04:16:40;;;;;;;6.57;5.97;;;;;;;;;;5075415;28;20614;-66
2022/04/04 04:20:19;;;;;;;6.72;6.05;;;;;;;;;;5076013;28;20201;-65
2022/04/04 04:21:54;;;;;;;7.28;6.57;;;;;;;;;;5076219;28;20236;-67
2022/04/04 04:24:20;;;;;;;6.50;6.00;;;;;;;;;;5075590;28;20203;-66
2022/04/04 04:26:47;;;;;;;6.50;5.90;;;;;;;;;;5075204;28;20201;-65
2022/04/04 04:29:15;;;;;;;7.20;6.60;;;;;;;;;;5075730;28;20270;-66
2022/04/04 04:31:42;;;;;;;7.13;6.63;;;;;;;;;;5075276;28;20193;-66
2022/04/04 04:34:09;;;;;;;7.63;7.03;;;;;;;;;;5075908;28;20584;-66
2022/04/04 04:36:37;;;;;;;8.23;7.63;;;;;;;;;;5074824;28;20661;-66
2022/04/04 04:39:03;;;;;;;8.02;7.38;;;;;;;;;;5076207;28;20173;-66
2022/04/04 04:41:30;;;;;;;9.45;8.65;;;;;;;;;;5076205;28;20185;-66
2022/04/04 04:43:57;;;;;;;8.27;7.68;;;;;;;;;;5075984;28;20213;-66
2022/04/04 04:46:24;;;;;;;8.88;8.18;;;;;;;;;;5075943;28;20213;-66
2022/04/04 04:48:51;;;;;;;8.68;7.93;;;;;;;;;;5075342;28;20213;-66
2022/04/04 04:51:18;;;;;;;8.23;7.57;;;;;;;;;;5075959;28;20189;-66
2022/04/04 04:53:44;;;;;;;7.63;7.13;;;;;;;;;;5075517;28;20189;-66
2022/04/04 04:56:11;;;;;;;7.43;6.75;;;;;;;;;;5074821;28;20236;-66
2022/04/04 04:58:37;;;;;;;7.00;6.50;;;;;;;;;;5075498;28;20203;-66
2022/04/04 05:01:04;;;;;;;7.50;6.78;;;;;;;;;;5075845;28;20177;-66
2022/04/04 05:03:33;;;;;;;7.70;7.10;;;;;;;;;;5074802;28;20561;-66
2022/04/04 05:06:00;;;;;;;7.53;7.03;;;;;;;;;;5075030;28;20254;-66
2022/04/04 05:08:27;;;;;;;7.45;6.80;;;;;;;;;;5074817;28;20207;-66
2022/04/04 05:10:53;;;;;;;7.15;6.65;;;;;;;;;;5074679;28;20215;-66
2022/04/04 05:13:21;;;;;;;8.15;7.55;;;;;;;;;;5075236;28;20196;-66
2022/04/04 05:15:47;;;;;;;7.57;6.97;;;;;;;;;;5075513;28;20196;-66
2022/04/04 05:18:14;;;;;;;7.78;7.28;;;;;;;;;;5074664;28;20213;-66
2022/04/04 05:20:42;;;;;;;8.18;7.57;;;;;;;;;;5075494;28;20191;-66
2022/04/04 05:23:09;;;;;;;8.32;7.65;;;;;;;;;;5074708;28;20224;-66
2022/04/04 05:25:35;;;;;;;8.07;7.47;;;;;;;;;;5074228;28;20197;-66
2022/04/04 05:28:02;;;;;;;7.43;6.82;;;;;;;;;;5075292;28;20301;-66
2022/04/04 05:30:29;;;;;;;7.68;7.13;;;;;;;;;;5074336;28;20244;-66
2022/04/04 05:32:55;;;;;;;7.00;6.55;;;;;;;;;;5074771;28;20251;-66
2022/04/04 05:35:22;;;;;;;7.45;6.85;;;;;;;;;;5074092;28;20260;-66
2022/04/04 05:37:54;;;;;;;7.35;6.75;;;;;;;;;;5074456;28;20209;-65
2022/04/04 05:40:21;;;;;;;6.80;6.30;;;;;;;;;;5074875;28;20197;-65
2022/04/04 05:42:49;;;;;;;7.13;6.38;;;;;;;;;;5074583;28;20201;-65
2022/04/04 05:45:15;;;;;;;7.40;6.80;;;;;;;;;;5073850;28;20655;-65
2022/04/04 05:47:42;;;;;;;6.97;6.38;;;;;;;;;;5075403;28;20203;-65
2022/04/04 05:50:09;;;;;;;6.90;6.40;;;;;;;;;;5075239;28;20224;-65
2022/04/04 05:52:36;;;;;;;7.28;6.75;;;;;;;;;;5075197;28;20207;-65
2022/04/04 05:55:04;;;;;;;7.80;7.10;;;;;;;;;;5074361;28;20189;-65
2022/04/04 05:57:31;;;;;;;7.50;6.90;;;;;;;;;;5074364;28;20228;-66
2022/04/04 05:59:58;;;;;;;6.60;6.10;;;;;;;;;;5074142;28;20201;-65
2022/04/04 06:02:26;;;;;;;6.60;6.10;;;;;;;;;;5074082;28;20609;-65
2022/04/04 06:04:53;;;;;;;6.70;6.18;;;;;;;;;;5075147;28;20199;-66
2022/04/04 06:07:20;;;;;;;6.38;5.97;;;;;;;;;;5075187;28;20185;-66
2022/04/04 06:09:46;;;;;;;6.82;6.32;;;;;;;;;;5074823;28;20548;-65
2022/04/04 06:12:14;;;;;;;6.50;6.00;;;;;;;;;;5074273;28;20201;-65
2022/04/04 06:14:41;;;;;;;6.60;6.20;;;;;;;;;;5074168;28;20435;-66
2022/04/04 06:17:08;;;;;;;7.00;6.30;;;;;;;;;;5074484;28;20751;-64
2022/04/04 06:19:38;;;;;;;6.00;5.60;;;;;;;;;;5074243;28;20200;-64
2022/04/04 06:22:05;;;;;;;6.57;6.15;;;;;;;;;;5074773;28;20181;-65
2022/04/04 06:24:32;;;;;;;6.93;6.35;;;;;;;;;;5074757;28;20212;-65
2022/04/04 06:26:58;;;;;;;6.88;6.28;;;;;;;;;;5075040;28;20322;-65
2022/04/04 06:29:26;;;;;;;7.13;6.60;;;;;;;;;;5074195;28;20205;-65
2022/04/04 06:31:53;;;;;;;7.00;6.40;;;;;;;;;;5074781;28;20212;-65
2022/04/04 06:34:20;;;;;;;7.40;6.70;;;;;;;;;;5074211;28;20243;-65
2022/04/04 06:36:46;;;;;;;7.22;6.72;;;;;;;;;;5074631;28;20229;-65
2022/04/04 06:39:13;;;;;;;6.93;6.35;;;;;;;;;;5074904;28;20211;-65
2022/04/04 06:41:40;;;;;;;7.25;6.72;;;;;;;;;;5073921;28;20204;-65
2022/04/04 06:44:07;;;;;;;7.50;6.90;;;;;;;;;;5074960;28;20259;-65
2022/04/04 06:46:36;;;;;;;6.82;6.43;;;;;;;;;;5073776;28;20193;-66
2022/04/04 06:49:02;;;;;;;7.00;6.50;;;;;;;;;;5074896;28;20236;-66
2022/04/04 06:51:29;;;;;;;7.00;6.50;;;;;;;;;;5075140;28;20213;-66
2022/04/04 06:53:55;;;;;;;7.18;6.57;;;;;;;;;;5074688;28;20197;-66
2022/04/04 06:56:23;;;;;;;6.95;6.35;;;;;;;;;;5075900;28;20293;-66
2022/04/04 06:58:51;;;;;;;6.70;6.05;;;;;;;;;;5077757;28;20641;-66
2022/04/04 07:01:18;;;;;;;6.50;5.95;;;;;;;;;;5078378;28;20181;-65
2022/04/04 07:03:46;;;;;;;6.93;6.40;;;;;;;;;;5077105;28;20209;-65
2022/04/04 07:06:13;;;;;;;7.55;6.95;;;;;;;;;;5078245;28;20186;-66
2022/04/04 07:08:39;;;;;;;7.43;6.82;;;;;;;;;;5078610;28;20194;-65
2022/04/04 07:11:10;;;;;;;8.00;7.40;;;;;;;;;;5077226;28;20303;-65
2022/04/04 07:13:36;;;;;;;7.10;6.50;;;;;;;;;;5078473;28;20284;-65
2022/04/04 07:16:03;;;;;;;6.57;6.07;;;;;;;;;;5077950;28;20181;-64
2022/04/04 07:18:30;;;;;;;7.18;6.68;;;;;;;;;;5077808;28;20616;-64
2022/04/04 07:20:58;;;;;;;5.65;5.25;;;;;;;;;;5077264;28;20215;-65
2022/04/04 07:23:24;;;;;;;6.28;5.88;;;;;;;;;;5077299;28;20193;-64
2022/04/04 07:25:51;;;;;;;6.18;5.78;;;;;;;;;;5077020;28;20212;-66
2022/04/04 07:28:20;;;;;;;7.30;6.70;;;;;;;;;;5077553;28;20197;-66
2022/04/04 07:30:46;;;;;;;7.30;6.60;;;;;;;;;;5077729;28;20213;-66
2022/04/04 07:33:15;;;;;;;6.20;5.60;;;;;;;;;;5077004;28;20204;-66
2022/04/04 07:35:43;;;;;;;5.53;5.07;;;;;;;;;;5077021;28;20236;-66
2022/04/04 07:38:12;;;;;;;7.13;6.53;;;;;;;;;;5077587;28;20208;-66
2022/04/04 07:40:38;;;;;;;6.50;5.90;;;;;;;;;;5076977;28;20291;-66
2022/04/04 07:43:05;;;;;;;6.30;5.70;;;;;;;;;;5076978;28;20208;-66
2022/04/04 07:45:32;;;;;;;7.03;6.43;;;;;;;;;;5077260;28;20196;-66
2022/04/04 07:47:59;;;;;;;6.88;6.28;;;;;;;;;;5076350;28;20197;-66
2022/04/04 07:50:26;;;;;;;6.85;6.32;;;;;;;;;;5077164;28;20247;-66
2022/04/04 07:52:53;;;;;;;5.63;5.22;;;;;;;;;;5077274;28;20189;-66
2022/04/04 07:55:21;;;;;;;6.65;6.15;;;;;;;;;;5076180;28;20298;-66
2022/04/04 07:57:48;;;;;;;7.13;6.53;;;;;;;;;;5076267;28;20197;-66
2022/04/04 08:00:17;;;;;;;6.90;6.38;;;;;;;;;;5077123;28;20182;-66
2022/04/04 08:02:44;;;;;;;7.15;6.53;;;;;;;;;;5076959;28;20208;-66
2022/04/04 08:05:10;;;;;;;6.22;5.82;;;;;;;;;;5076826;28;20204;-66
2022/04/04 08:07:38;;;;;;;6.63;6.00;;;;;;;;;;5076712;28;20208;-66
2022/04/04 08:10:05;;;;;;;6.32;5.82;;;;;;;;;;5076661;28;20201;-66
2022/04/04 08:12:33;;;;;;;6.20;5.70;;;;;;;;;;5076750;28;20193;-66
2022/04/04 08:14:59;;;;;;;6.47;5.97;;;;;;;;;;5075915;28;20291;-66
2022/04/04 08:17:26;;;;;;;6.68;6.15;;;;;;;;;;5075615;28;20205;-66
2022/04/04 08:19:53;;;;;;;5.85;5.45;;;;;;;;;;5076751;28;20284;-66
2022/04/04 08:22:20;;;;;;;6.93;6.43;;;;;;;;;;5074989;28;20803;-66
2022/04/04 08:24:46;;;;;;;6.90;6.30;;;;;;;;;;5075671;28;20507;-66
2022/04/04 08:27:13;;;;;;;7.30;6.70;;;;;;;;;;5074646;28;20440;-66
2022/04/04 08:29:42;;;;;;;7.10;6.60;;;;;;;;;;5075154;28;20904;-66
2022/04/04 08:32:09;;;;;;;7.22;6.53;;;;;;;;;;5075384;28;20431;-66
2022/04/04 08:34:36;;;;;;;7.40;6.80;;;;;;;;;;5074875;28;20447;-66
2022/04/04 08:37:02;;;;;;;6.90;6.30;;;;;;;;;;5075115;28;20544;-66
2022/04/04 08:39:29;;;;;;;6.60;6.10;;;;;;;;;;5076471;28;20177;-66
2022/04/04 08:41:57;;;;;;;7.72;7.00;;;;;;;;;;5076233;28;20185;-66
2022/04/04 08:44:24;;;;;;;6.78;6.28;;;;;;;;;;5075841;28;20526;-66
2022/04/04 08:46:53;;;;;;;6.43;6.03;;;;;;;;;;5076129;28;20220;-64
2022/04/04 08:49:20;;;;;;;6.80;6.40;;;;;;;;;;5075468;28;20482;-65
2022/04/04 08:51:48;;;;;;;6.60;6.10;;;;;;;;;;5074801;28;20228;-65
2022/04/04 08:54:15;;;;;;;6.88;6.38;;;;;;;;;;5075785;28;20196;-65
2022/04/04 08:56:43;;;;;;;6.72;6.22;;;;;;;;;;5075658;28;20211;-65
2022/04/04 08:59:10;;;;;;;9.10;8.40;;;;;;;;;;5075369;28;20225;-65
2022/04/04 09:01:36;;;;;;;7.32;6.78;;;;;;;;;;5075869;28;20181;-65
2022/04/04 09:04:18;;;;;;;7.55;7.05;;;;;;;;;;5075068;28;20197;-65
2022/04/04 09:06:48;;;;;;;6.65;6.15;;;;;;;;;;5075659;28;20193;-65
2022/04/04 09:09:18;;;;;;;6.72;6.22;;;;;;;;;;5075169;28;20200;-65
2022/04/04 09:11:51;;;;;;;6.70;6.20;;;;;;;;;;5075929;28;20201;-65
2022/04/04 09:14:21;;;;;;;7.60;7.10;;;;;;;;;;5077270;28;20189;-65
2022/04/04 09:16:53;;;;;;;6.88;6.38;;;;;;;;;;5077032;28;20209;-65
2022/04/04 09:19:39;;;;;;;7.00;6.40;;;;;;;;;;5074556;28;20201;-65
2022/04/04 09:22:08;;;;;;;6.80;6.30;;;;;;;;;;5075851;28;20181;-65
2022/04/04 09:24:58;;;;;;;6.85;6.35;;;;;;;;;;5074993;28;20197;-65
2022/04/04 09:27:25;;;;;;;6.90;6.30;;;;;;;;;;5054765;28;20205;-66
2022/04/04 09:29:53;;;;;;;7.22;6.72;;;;;;;;;;5074883;28;20203;-65
2022/04/04 09:32:20;;;;;;;6.80;6.30;;;;;;;;;;5074860;28;20217;-65
2022/04/04 09:35:00;;;;;;;6.60;6.00;;;;;;;;;;5075801;28;20185;-65
2022/04/04 09:37:29;;;;;;;6.63;6.07;;;;;;;;;;5074665;28;20205;-65
2022/04/04 09:40:07;;;;;;;6.75;6.25;;;;;;;;;;5075465;28;20186;-65
2022/04/04 09:42:34;;;;;;;6.68;6.18;;;;;;;;;;5074626;28;20208;-66
2022/04/04 09:45:01;;;;;;;6.32;5.78;;;;;;;;;;5075543;28;20284;-65
2022/04/04 09:47:48;;;;;;;6.13;5.57;;;;;;;;;;5074614;28;20232;-65
2022/04/04 09:50:34;;;;;;;6.50;5.90;;;;;;;;;;5074750;28;20197;-65
2022/04/04 09:53:02;;;;;;;5.88;5.47;;;;;;;;;;5074501;28;20260;-65
2022/04/04 09:55:30;;;;;;;6.22;5.68;;;;;;;;;;5075251;28;20199;-65
2022/04/04 09:57:58;;;;;;;6.38;5.88;;;;;;;;;;5075321;28;20212;-65
2022/04/04 10:00:24;;;;;;;6.78;6.28;;;;;;;;;;5074372;28;20431;-66
2022/04/04 10:02:52;;;;;;;5.80;5.30;;;;;;;;;;5074534;28;20185;-67
2022/04/04 10:05:19;;;;;;;5.63;5.22;;;;;;;;;;5075173;28;20228;-67
2022/04/04 10:07:46;;;;;;;6.10;5.57;;;;;;;;;;5074336;28;20219;-67
2022/04/04 10:10:15;;;;;;;5.13;4.72;;;;;;;;;;5075213;28;20531;-67
2022/04/04 10:12:42;;;;;;;5.50;5.07;;;;;;;;;;5074327;28;20297;-67
2022/04/04 10:15:09;;;;;;;6.57;5.97;;;;;;;;;;5075061;28;20260;-67
2022/04/04 10:17:36;;;;;;;5.65;5.10;;;;;;;;;;5074307;28;20204;-67
2022/04/04 10:20:05;;;;;;;5.75;5.25;;;;;;;;;;5075239;28;20212;-67
2022/04/04 10:22:32;;;;;;;5.03;4.50;;;;;;;;;;5075790;28;20213;-66
2022/04/04 10:24:59;;;;;;;5.53;5.03;;;;;;;;;;5074270;28;20235;-67
2022/04/04 10:27:27;;;;;;;5.50;5.00;;;;;;;;;;5074661;28;20287;-67
2022/04/04 10:30:01;;;;;;;5.57;5.07;;;;;;;;;;5074233;28;20538;-67
2022/04/04 10:32:28;;;;;;;5.20;4.80;;;;;;;;;;5077569;28;20724;-67
2022/04/04 10:34:55;;;;;;;5.32;4.93;;;;;;;;;;5078855;28;20521;-68
2022/04/04 10:37:25;;;;;;;5.68;5.13;;;;;;;;;;5078935;28;20193;-67
2022/04/04 10:39:52;;;;;;;5.57;5.10;;;;;;;;;;5077534;28;20553;-67
2022/04/04 10:42:31;;;;;;;5.25;4.85;;;;;;;;;;5077790;28;20200;-66
2022/04/04 10:44:59;;;;;;;5.63;5.10;;;;;;;;;;5077897;28;20210;-67
2022/04/04 10:47:27;;;;;;;5.90;5.40;;;;;;;;;;5078621;28;20509;-66
2022/04/04 10:49:55;;;;;;;6.57;5.97;;;;;;;;;;5077398;28;20575;-65
2022/04/04 10:52:38;;;;;;;5.40;5.00;;;;;;;;;;5077067;28;20249;-66
2022/04/04 10:55:19;;;;;;;5.55;5.15;;;;;;;;;;5077387;28;20679;-65
2022/04/04 10:57:47;;;;;;;5.80;5.30;;;;;;;;;;5076837;28;20208;-65
2022/04/04 11:00:17;;;;;;;5.38;4.97;;;;;;;;;;5077380;28;20300;-65
2022/04/04 11:02:44;;;;;;;6.18;5.68;;;;;;;;;;5078711;28;20177;-67
2022/04/04 11:08:02;;;;;;;6.53;6.03;;;;;;;;;;5078229;28;20201;-66
2022/04/04 11:10:38;;;;;;;6.33;5.83;;;;;;;;;;5078107;28;20228;-64
2022/04/04 11:13:08;;;;;;;5.78;5.38;;;;;;;;;;5077789;28;20465;-65
2022/04/04 11:15:41;;;;;;;6.43;5.85;;;;;;;;;;5078317;28;20242;-65
2022/04/04 11:18:08;;;;;;;5.63;5.20;;;;;;;;;;5078182;28;20189;-66
2022/04/04 11:20:36;;;;;;;5.90;5.50;;;;;;;;;;5078735;28;20219;-65
2022/04/04 11:23:08;;;;;;;5.88;5.25;;;;;;;;;;5078483;28;20202;-65
2022/04/04 11:25:37;;;;;;;6.13;5.63;;;;;;;;;;5078246;28;20254;-66
2022/04/04 11:28:04;;;;;;;5.70;5.20;;;;;;;;;;5077699;28;20239;-66
2022/04/04 11:30:32;;;;;;;5.82;5.32;;;;;;;;;;5077264;28;20197;-66
2022/04/04 11:32:59;;;;;;;5.38;4.97;;;;;;;;;;5077401;28;20244;-66
2022/04/04 11:35:30;;;;;;;6.05;5.55;;;;;;;;;;5077263;28;20267;-66
2022/04/04 11:37:59;;;;;;;5.65;4.85;;;;;;;;;;5078328;28;20225;-66
2022/04/04 11:40:29;;;;;;;5.10;4.80;;;;;;;;;;5077668;28;20665;-66
2022/04/04 11:42:56;;;;;;;5.55;5.13;;;;;;;;;;5077444;28;20181;-65
2022/04/04 11:45:24;;;;;;;5.88;5.40;;;;;;;;;;5078637;28;20224;-65
2022/04/04 11:47:53;;;;;;;5.80;5.35;;;;;;;;;;5077584;28;20193;-66
2022/04/04 11:50:23;;;;;;;5.88;5.38;;;;;;;;;;5078493;28;20196;-65
2022/04/04 11:52:50;;;;;;;6.90;6.00;;;;;;;;;;5077653;28;20209;-65
2022/04/04 11:55:17;;;;;;;7.47;6.22;;;;;;;;;;5076606;28;20501;-66
2022/04/04 11:57:46;;;;;;;9.73;5.90;;;;;;;;;;5077831;28;20193;-65
2022/04/04 12:00:22;;;;;;;6.10;5.50;;;;;;;;;;5077421;28;20185;-65
2022/04/04 12:02:49;;;;;;;6.03;5.53;;;;;;;;;;5076614;28;20192;-65
2022/04/04 12:05:22;;;;;;;4.43;4.05;;;;;;;;;;5076616;28;20604;-65
2022/04/04 12:07:49;;;;;;;5.13;4.72;;;;;;;;;;5076818;28;20193;-65
2022/04/04 12:10:24;;;;;;;4.57;4.18;;;;;;;;;;5077409;28;20189;-65
2022/04/04 12:12:56;;;;;;;5.00;4.60;;;;;;;;;;5077322;28;20211;-66
2022/04/04 12:15:26;;;;;;;5.70;5.20;;;;;;;;;;5076248;28;20248;-66
2022/04/04 12:17:52;;;;;;;4.10;3.80;;;;;;;;;;5077322;28;20240;-65
2022/04/04 12:20:21;;;;;;;3.70;3.50;;;;;;;;;;5076429;28;20190;-65
2022/04/04 12:25:32;;;;;;;3.40;3.10;;;;;;;;;;5076485;28;20193;-65
2022/04/04 12:27:59;;;;;;;3.55;3.30;;;;;;;;;;5077351;28;20185;-65
2022/04/04 12:30:29;;;;;;;3.55;3.30;;;;;;;;;;5076167;28;20229;-66
2022/04/04 12:33:06;;;;;;;3.40;3.17;;;;;;;;;;5076993;28;20367;-65
2022/04/04 12:35:39;;;;;;;3.40;3.20;;;;;;;;;;5076144;28;20247;-65
2022/04/04 12:38:05;;;;;;;3.00;2.80;;;;;;;;;;5077405;28;20177;-65
2022/04/04 12:40:32;;;;;;;3.13;2.80;;;;;;;;;;5077333;28;20220;-65
2022/04/04 12:43:05;;;;;;;3.08;2.88;;;;;;;;;;5076270;28;20207;-65
2022/04/04 12:45:33;;;;;;;3.20;3.00;;;;;;;;;;5076455;28;20188;-65
2022/04/04 12:48:00;;;;;;;4.05;3.38;;;;;;;;;;5075355;28;20189;-65
2022/04/04 12:50:38;;;;;;;3.80;3.50;;;;;;;;;;5076013;28;20624;-65
2022/04/04 12:53:07;;;;;;;3.30;3.10;;;;;;;;;;5076167;28;20249;-65
2022/04/04 12:55:34;;;;;;;3.20;3.00;;;;;;;;;;5075365;28;20654;-65
2022/04/04 12:58:18;;;;;;;3.75;3.50;;;;;;;;;;5075317;28;20531;-65
2022/04/04 13:00:45;;;;;;;3.30;3.10;;;;;;;;;;5076143;28;20280;-65
2022/04/04 13:03:19;;;;;;;3.00;2.80;;;;;;;;;;5076160;28;20196;-66
2022/04/04 13:05:48;;;;;;;2.90;2.70;;;;;;;;;;5075328;28;20203;-66
2022/04/04 13:08:17;;;;;;;3.05;2.75;;;;;;;;;;5075919;28;20196;-66
2022/04/04 13:10:44;;;;;;;3.10;2.90;;;;;;;;;;5076077;28;20213;-66
2022/04/04 13:13:11;;;;;;;3.30;3.10;;;;;;;;;;5075811;28;20292;-66
2022/04/04 13:15:38;;;;;;;3.05;2.85;;;;;;;;;;5075881;28;20193;-66
2022/04/04 13:18:05;;;;;;;3.38;3.08;;;;;;;;;;5074876;28;20596;-66
2022/04/04 13:20:32;;;;;;;3.20;3.00;;;;;;;;;;5075057;28;20595;-66
2022/04/04 13:23:00;;;;;;;3.28;2.97;;;;;;;;;;5075777;28;20597;-66
2022/04/04 13:25:27;;;;;;;3.25;3.00;;;;;;;;;;5075501;28;20222;-65
2022/04/04 13:27:54;;;;;;;5.80;3.17;;;;;;;;;;5075675;28;20208;-65
2022/04/04 13:30:20;;;;;;;3.30;3.10;;;;;;;;;;5075838;28;20275;-65
2022/04/04 13:32:47;;;;;;;3.70;3.38;;;;;;;;;;5075517;28;20300;-65
2022/04/04 13:35:13;;;;;;;6.75;4.65;;;;;;;;;;5074759;28;20205;-66
2022/04/04 13:37:40;;;;;;;7.63;6.03;;;;;;;;;;5074715;28;20639;-66
2022/04/04 13:40:09;;;;;;;6.03;5.53;;;;;;;;;;5075874;28;20189;-66
2022/04/04 13:42:37;;;;;;;6.28;5.68;;;;;;;;;;5075489;28;20188;-66
2022/04/04 13:45:04;;;;;;;6.72;6.13;;;;;;;;;;5075675;28;20197;-65
2022/04/04 13:47:31;;;;;;;33.22;12.55;;;;;;;;;;5075791;28;20223;-65
2022/04/04 13:49:58;;;;;;;6.97;6.38;;;;;;;;;;5074704;28;20203;-66
2022/04/04 13:52:25;;;;;;;6.72;6.10;;;;;;;;;;5075074;28;20231;-67
2022/04/04 13:54:52;;;;;;;10.13;6.30;;;;;;;;;;5075480;28;20200;-66
2022/04/04 13:57:21;;;;;;;89.80;15.48;;;;;;;;;;5074680;28;20292;-67
2022/04/04 13:59:48;;;;;;;18.98;7.00;;;;;;;;;;5074963;28;20182;-67
2022/04/04 14:02:15;;;;;;;7.05;5.13;;;;;;;;;;5074472;28;20220;-67
2022/04/04 14:04:42;;;;;;;5.82;4.70;;;;;;;;;;5074976;28;20231;-67
2022/04/04 14:07:10;;;;;;;4.57;4.28;;;;;;;;;;5079441;28;20189;-67
2022/04/04 14:09:37;;;;;;;5.65;5.15;;;;;;;;;;5079368;28;20246;-67
2022/04/04 14:12:04;;;;;;;5.70;4.47;;;;;;;;;;5079458;28;20219;-67
2022/04/04 14:14:33;;;;;;;4.93;4.50;;;;;;;;;;5078970;28;20526;-67
2022/04/04 14:17:00;;;;;;;4.50;4.13;;;;;;;;;;5078903;28;20677;-67
2022/04/04 14:19:27;;;;;;;5.47;4.93;;;;;;;;;;5079185;28;20185;-67
2022/04/04 14:21:53;;;;;;;5.50;5.03;;;;;;;;;;5078933;28;20177;-67
2022/04/04 14:24:20;;;;;;;5.72;5.20;;;;;;;;;;5079168;28;20236;-67
2022/04/04 14:26:46;;;;;;;5.05;4.65;;;;;;;;;;5079165;28;20185;-67
2022/04/04 14:29:13;;;;;;;7.15;5.10;;;;;;;;;;5078402;28;20207;-66
2022/04/04 14:31:41;;;;;;;7.57;5.40;;;;;;;;;;5078717;28;20192;-66
2022/04/04 14:34:08;;;;;;;5.50;5.00;;;;;;;;;;5078935;28;20268;-67
2022/04/04 14:36:34;;;;;;;5.68;5.20;;;;;;;;;;5077703;28;20245;-67
2022/04/04 14:39:01;;;;;;;6.25;5.63;;;;;;;;;;5077934;28;20201;-67
2022/04/04 14:41:28;;;;;;;5.72;5.22;;;;;;;;;;5078615;28;20181;-67
2022/04/04 14:43:54;;;;;;;5.53;5.13;;;;;;;;;;5078641;28;20292;-67
2022/04/04 14:46:21;;;;;;;5.78;5.25;;;;;;;;;;5078837;28;20185;-67
2022/04/04 14:48:51;;;;;;;6.57;4.85;;;;;;;;;;5078093;28;20235;-67
2022/04/04 14:51:18;;;;;;;5.22;4.78;;;;;;;;;;5078448;28;20205;-67
2022/04/04 14:53:44;;;;;;;5.55;5.10;;;;;;;;;;5078838;28;20243;-67
2022/04/04 14:56:12;;;;;;;5.68;4.30;;;;;;;;;;5078824;28;20201;-67